Schedule Details


Flight Number: CTN418
Departure: Cilipi (LDDU) at 06:30
Arrival: Frankfurt/main (EDDF) at 08:35
Route: AMUGO UL611 UVODI UL862 SABAD DCT PIKIT DCT SUBEN UQ162 PSA

Weather Information
LDDU 221600Z 13008KT 100V160 CAVOK 20/12 Q1019 NOSIG
EDDF 221550Z 21006KT CAVOK 23/09 Q1009 NOSIG
Schedule Frequency

Route Map